Time;durP1;ratioP1;P1;durP2;ratioP2;P2;SDS_P1;SDS_P2;PMS_P1;PMS_P2;Temp;Humidity;BMP_temperature;BMP_pressure;BME280_temperature;BME280_humidity;BME280_pressure;Samples;Min_cycle;Max_cycle;Signal;HPM_P1;HPM_P2
2023/09/14 00:01:24;;;;;;;3.73;2.10;;;17.00;99.90;;;;;;5033603;28;20501;-80
2023/09/14 00:03:52;;;;;;;2.80;2.23;;;16.90;99.90;;;;;;5033496;28;20482;-80
2023/09/14 00:06:19;;;;;;;2.20;1.70;;;16.90;99.90;;;;;;5033206;28;20455;-80
2023/09/14 00:08:45;;;;;;;2.37;2.00;;;16.90;99.90;;;;;;5033535;28;20454;-79
2023/09/14 00:11:12;;;;;;;2.17;1.33;;;16.90;99.90;;;;;;5033461;28;20454;-79
2023/09/14 00:13:39;;;;;;;4.43;2.20;;;16.80;99.90;;;;;;5033102;28;20944;-80
2023/09/14 00:16:07;;;;;;;2.67;2.03;;;16.80;99.90;;;;;;5033365;28;20509;-80
2023/09/14 00:18:34;;;;;;;5.90;2.37;;;16.80;99.90;;;;;;5033376;28;20446;-80
2023/09/14 00:21:01;;;;;;;3.83;1.97;;;16.80;99.90;;;;;;5033341;28;20458;-80
2023/09/14 00:23:27;;;;;;;3.57;2.27;;;16.80;99.90;;;;;;5033047;28;20439;-80
2023/09/14 00:25:54;;;;;;;2.97;2.50;;;16.80;99.90;;;;;;5032695;28;21015;-80
2023/09/14 00:28:21;;;;;;;3.00;2.33;;;16.80;99.90;;;;;;5032978;28;20453;-80
2023/09/14 00:30:51;;;;;;;3.07;2.77;;;17.20;99.90;;;;;;5033178;28;20447;-80
2023/09/14 00:33:21;;;;;;;3.00;2.10;;;16.80;99.90;;;;;;5033243;28;20435;-79
2023/09/14 00:35:48;;;;;;;2.90;1.97;;;16.80;99.90;;;;;;5033126;28;20471;-79
2023/09/14 00:38:15;;;;;;;2.93;2.47;;;16.70;99.90;;;;;;5032913;28;20438;-80
2023/09/14 00:40:42;;;;;;;3.80;2.20;;;16.70;99.90;;;;;;5033144;28;20449;-80
2023/09/14 00:43:09;;;;;;;2.97;1.53;;;16.70;99.90;;;;;;5033125;28;20546;-80
2023/09/14 00:45:36;;;;;;;4.40;2.50;;;16.70;99.90;;;;;;5032951;28;20491;-80
2023/09/14 00:48:04;;;;;;;3.13;1.70;;;16.70;99.90;;;;;;5032834;28;20430;-80
2023/09/14 00:50:33;;;;;;;3.43;1.53;;;16.60;99.90;;;;;;5033040;28;20443;-80
2023/09/14 00:53:03;;;;;;;3.20;2.10;;;16.60;99.90;;;;;;5033959;28;20458;-80
2023/09/14 00:55:31;;;;;;;2.20;1.47;;;16.60;99.90;;;;;;5036985;28;20517;-82
2023/09/14 00:57:58;;;;;;;5.63;3.13;;;16.60;99.90;;;;;;5037005;28;20584;-80
2023/09/14 01:00:26;;;;;;;3.57;2.43;;;16.60;99.90;;;;;;5036898;28;20450;-80
2023/09/14 01:02:54;;;;;;;4.43;2.40;;;16.60;99.90;;;;;;5036581;28;20525;-80
2023/09/14 01:05:22;;;;;;;3.27;1.97;;;16.60;99.90;;;;;;5036677;28;20479;-80
2023/09/14 01:07:50;;;;;;;2.97;1.80;;;16.70;99.90;;;;;;5036782;28;20450;-80
2023/09/14 01:10:17;;;;;;;2.10;1.77;;;16.70;99.90;;;;;;5036442;28;20954;-80
2023/09/14 01:12:46;;;;;;;2.93;2.00;;;16.70;99.90;;;;;;5036735;28;20537;-79
2023/09/14 01:15:19;;;;;;;2.83;2.57;;;16.80;99.90;;;;;;5036603;28;20459;-80
2023/09/14 01:17:58;;;;;;;5.83;2.10;;;16.80;99.90;;;;;;5036372;28;20538;-80
2023/09/14 01:20:43;;;;;;;5.50;2.47;;;16.80;99.90;;;;;;5036301;28;20803;-80
2023/09/14 01:23:28;;;;;;;4.53;2.57;;;16.90;99.90;;;;;;5036553;28;20431;-80
2023/09/14 01:25:56;;;;;;;5.03;2.43;;;16.90;99.90;;;;;;5035857;28;21019;-80
2023/09/14 01:28:23;;;;;;;4.77;3.13;;;16.90;99.90;;;;;;5036879;28;20466;-79
2023/09/14 01:30:50;;;;;;;5.80;2.77;;;16.90;99.90;;;;;;5036363;28;20529;-80
2023/09/14 01:33:20;;;;;;;4.60;2.33;;;16.90;99.90;;;;;;5036035;28;20458;-80
2023/09/14 01:35:53;;;;;;;5.13;3.20;;;17.00;99.90;;;;;;5036322;28;20467;-81
2023/09/14 01:38:21;;;;;;;3.43;1.90;;;17.00;99.90;;;;;;5036299;28;20435;-80
2023/09/14 01:40:49;;;;;;;6.07;2.80;;;17.00;99.90;;;;;;5036795;28;20427;-80
2023/09/14 01:43:18;;;;;;;5.50;2.60;;;17.00;99.90;;;;;;5036154;28;20446;-80
2023/09/14 01:45:45;;;;;;;4.97;3.30;;;17.00;99.90;;;;;;5035988;28;20522;-80
2023/09/14 01:48:16;;;;;;;4.70;3.67;;;17.00;99.90;;;;;;5035805;28;20442;-80
2023/09/14 01:50:43;;;;;;;4.03;3.03;;;17.10;99.90;;;;;;5035738;28;20426;-80
2023/09/14 01:53:11;;;;;;;7.27;3.53;;;17.10;99.90;;;;;;5035667;28;20442;-80
2023/09/14 01:55:38;;;;;;;4.00;2.50;;;17.10;99.90;;;;;;5035555;28;20926;-80
2023/09/14 01:58:05;;;;;;;4.20;2.90;;;17.10;99.90;;;;;;5035753;28;20821;-80
2023/09/14 02:00:33;;;;;;;6.93;3.63;;;17.10;99.90;;;;;;5035848;28;20443;-80
2023/09/14 02:02:59;;;;;;;5.43;3.20;;;17.10;99.90;;;;;;5035779;28;20449;-80
2023/09/14 02:05:26;;;;;;;8.40;4.00;;;17.10;99.90;;;;;;5035108;28;20497;-80
2023/09/14 02:07:53;;;;;;;5.67;3.97;;;17.10;99.90;;;;;;5035684;28;20443;-80
2023/09/14 02:10:21;;;;;;;4.63;2.60;;;17.10;99.90;;;;;;5035640;28;20442;-80
2023/09/14 02:12:49;;;;;;;5.97;4.30;;;17.10;99.90;;;;;;5035319;28;20971;-80
2023/09/14 02:15:16;;;;;;;4.63;3.53;;;17.10;99.90;;;;;;5035274;28;20518;-80
2023/09/14 02:17:44;;;;;;;8.00;4.17;;;17.10;99.90;;;;;;5035508;28;20439;-80
2023/09/14 02:20:12;;;;;;;5.40;3.50;;;17.10;99.90;;;;;;5035185;28;20954;-80
2023/09/14 02:22:39;;;;;;;7.03;4.40;;;17.10;99.90;;;;;;5035395;28;20449;-80
2023/09/14 02:25:06;;;;;;;6.60;4.17;;;17.10;99.90;;;;;;5035239;28;20490;-80
2023/09/14 02:27:33;;;;;;;5.60;3.13;;;17.10;99.90;;;;;;5034867;28;20474;-80
2023/09/14 02:30:00;;;;;;;6.93;3.70;;;17.10;99.90;;;;;;5035276;28;20477;-80
2023/09/14 02:32:27;;;;;;;4.27;3.50;;;17.40;99.90;;;;;;5034940;28;20454;-81
2023/09/14 02:34:55;;;;;;;3.33;3.03;;;17.10;99.90;;;;;;5034844;28;20461;-80
2023/09/14 02:37:22;;;;;;;3.10;2.20;;;17.10;99.90;;;;;;5034861;28;20435;-80
2023/09/14 02:39:48;;;;;;;3.40;2.60;;;17.10;99.90;;;;;;5035103;28;20439;-80
2023/09/14 02:42:15;;;;;;;5.50;2.70;;;17.10;99.90;;;;;;5035068;28;20438;-80
2023/09/14 02:44:42;;;;;;;5.90;4.00;;;17.10;99.90;;;;;;5034539;28;20483;-80
2023/09/14 02:47:08;;;;;;;7.10;3.87;;;17.10;99.90;;;;;;5034971;28;20447;-80
2023/09/14 02:49:35;;;;;;;4.60;3.20;;;17.10;99.90;;;;;;5034924;28;20465;-80
2023/09/14 02:52:04;;;;;;;3.43;2.30;;;17.10;99.90;;;;;;5034874;28;20461;-80
2023/09/14 02:54:31;;;;;;;4.90;3.03;;;17.10;99.90;;;;;;5034809;28;20447;-80
2023/09/14 02:56:58;;;;;;;5.73;2.90;;;17.20;99.90;;;;;;5034969;28;20461;-80
2023/09/14 02:59:24;;;;;;;6.77;3.47;;;17.20;99.90;;;;;;5034737;28;20450;-80
2023/09/14 03:01:51;;;;;;;4.43;3.37;;;17.20;99.90;;;;;;5034915;28;20959;-80
2023/09/14 03:04:18;;;;;;;5.53;3.00;;;17.20;99.90;;;;;;5034629;28;20453;-80
2023/09/14 03:06:44;;;;;;;10.83;2.93;;;17.20;99.90;;;;;;5034177;28;21045;-81
2023/09/14 03:09:13;;;;;;;9.60;3.90;;;17.20;99.90;;;;;;5034236;28;21018;-80
2023/09/14 03:11:39;;;;;;;3.20;2.70;;;17.20;99.90;;;;;;5034170;28;20978;-80
2023/09/14 03:14:06;;;;;;;5.77;3.47;;;17.20;99.90;;;;;;5034450;28;20454;-80
2023/09/14 03:16:33;;;;;;;5.40;3.13;;;17.20;99.90;;;;;;5033477;28;20467;-80
2023/09/14 03:18:59;;;;;;;6.03;3.13;;;17.20;99.90;;;;;;5034387;28;20447;-80
2023/09/14 03:21:28;;;;;;;6.10;4.07;;;17.20;99.90;;;;;;5034308;28;20442;-80
2023/09/14 03:23:55;;;;;;;7.33;4.17;;;17.20;99.90;;;;;;5033983;28;20439;-80
2023/09/14 03:26:25;;;;;;;3.40;3.10;;;17.10;99.90;;;;;;5033694;28;21002;-80
2023/09/14 03:28:51;;;;;;;9.63;2.90;;;17.20;99.90;;;;;;5033852;28;20798;-80
2023/09/14 03:31:18;;;;;;;3.93;2.10;;;17.20;99.90;;;;;;5034011;28;20446;-80
2023/09/14 03:33:47;;;;;;;5.30;3.23;;;17.20;99.90;;;;;;5034113;28;20439;-80
2023/09/14 03:36:14;;;;;;;8.13;3.63;;;17.20;99.90;;;;;;5034011;28;20474;-80
2023/09/14 03:38:41;;;;;;;8.03;3.40;;;17.20;99.90;;;;;;5034188;28;20454;-80
2023/09/14 03:41:08;;;;;;;4.23;2.50;;;17.10;99.90;;;;;;5033704;28;20431;-80
2023/09/14 03:43:36;;;;;;;4.70;3.07;;;17.20;99.90;;;;;;5033689;28;20450;-80
2023/09/14 03:46:03;;;;;;;7.40;2.63;;;17.20;99.90;;;;;;5033717;28;20486;-80
2023/09/14 03:48:30;;;;;;;5.93;3.57;;;17.10;99.90;;;;;;5033815;28;20446;-80
2023/09/14 03:50:59;;;;;;;6.23;3.37;;;17.10;99.90;;;;;;5033797;28;20447;-80
2023/09/14 03:53:26;;;;;;;6.20;2.80;;;17.20;99.90;;;;;;5033724;28;20450;-80
2023/09/14 03:55:53;;;;;;;7.43;4.13;;;17.20;99.90;;;;;;5033364;28;20538;-81
2023/09/14 03:58:20;;;;;;;3.70;3.20;;;17.10;99.90;;;;;;5033668;28;20450;-80
2023/09/14 04:00:48;;;;;;;4.70;3.10;;;17.10;99.90;;;;;;5033661;28;20533;-81
2023/09/14 04:03:16;;;;;;;4.63;2.73;;;17.10;99.90;;;;;;5033333;28;20956;-81
2023/09/14 04:05:43;;;;;;;7.37;3.70;;;17.10;99.90;;;;;;5033408;28;20501;-80
2023/09/14 04:08:10;;;;;;;5.90;3.30;;;17.20;99.90;;;;;;5033515;28;20459;-80
2023/09/14 04:10:38;;;;;;;4.20;3.00;;;17.20;99.90;;;;;;5033547;28;20508;-80
2023/09/14 04:13:29;;;;;;;3.83;2.23;;;17.20;99.90;;;;;;5033445;28;20442;-80
2023/09/14 04:15:58;;;;;;;6.63;4.03;;;17.20;99.90;;;;;;5033365;28;20498;-80
2023/09/14 04:18:25;;;;;;;6.80;2.43;;;17.20;99.90;;;;;;5033381;28;20449;-80
2023/09/14 04:20:53;;;;;;;7.03;3.27;;;17.20;99.90;;;;;;5033339;28;20446;-80
2023/09/14 04:23:20;;;;;;;5.63;2.90;;;17.30;99.90;;;;;;5033297;28;20449;-80
2023/09/14 04:25:48;;;;;;;3.77;2.70;;;17.20;99.90;;;;;;5032950;28;20866;-80
2023/09/14 04:28:14;;;;;;;5.70;3.37;;;17.20;99.90;;;;;;5033119;28;20441;-81
2023/09/14 04:30:43;;;;;;;4.97;3.10;;;17.20;99.90;;;;;;5033217;28;20446;-80
2023/09/14 04:33:11;;;;;;;4.57;3.27;;;17.20;99.90;;;;;;5033218;28;20443;-80
2023/09/14 04:35:38;;;;;;;5.20;2.80;;;17.10;99.90;;;;;;5032861;28;20470;-80
2023/09/14 04:38:05;;;;;;;6.70;3.30;;;17.10;99.90;;;;;;5032932;28;20447;-80
2023/09/14 04:40:32;;;;;;;3.17;2.43;;;17.10;99.90;;;;;;5033376;28;20853;-80
2023/09/14 04:43:00;;;;;;;5.43;3.33;;;17.20;99.90;;;;;;5032886;28;20457;-80
2023/09/14 04:45:26;;;;;;;4.17;3.10;;;17.10;99.90;;;;;;5032721;28;20493;-80
2023/09/14 04:47:53;;;;;;;4.30;3.03;;;17.20;99.90;;;;;;5032769;28;20451;-80
2023/09/14 04:50:21;;;;;;;4.63;1.93;;;17.10;99.90;;;;;;5033068;28;20443;-80
2023/09/14 04:52:48;;;;;;;5.20;3.07;;;17.10;99.90;;;;;;5033046;28;20443;-80
2023/09/14 04:55:15;;;;;;;4.50;3.13;;;17.10;99.90;;;;;;5032937;28;20470;-80
2023/09/14 04:57:41;;;;;;;2.60;2.27;;;17.20;99.90;;;;;;5032763;28;20442;-80
2023/09/14 05:00:10;;;;;;;8.13;2.33;;;17.20;99.90;;;;;;5032633;28;20815;-80
2023/09/14 05:02:38;;;;;;;3.63;2.20;;;17.20;99.90;;;;;;5032984;28;20455;-80
2023/09/14 05:05:07;;;;;;;7.73;3.07;;;17.20;99.90;;;;;;5032460;28;20890;-80
2023/09/14 05:07:35;;;;;;;3.67;2.50;;;17.20;99.90;;;;;;5032599;28;20936;-80
2023/09/14 05:10:02;;;;;;;4.17;2.20;;;17.20;99.90;;;;;;5032944;28;20435;-80
2023/09/14 05:12:29;;;;;;;3.47;2.83;;;17.20;99.90;;;;;;5032855;28;20542;-80
2023/09/14 05:14:56;;;;;;;4.90;2.53;;;17.20;99.90;;;;;;5032522;28;21091;-80
2023/09/14 05:17:22;;;;;;;2.90;2.27;;;17.20;99.90;;;;;;5032817;28;20435;-80
2023/09/14 05:19:49;;;;;;;3.00;1.93;;;17.20;99.90;;;;;;5032505;28;20970;-80
2023/09/14 05:22:16;;;;;;;6.77;3.30;;;17.30;99.90;;;;;;5032788;28;20442;-80
2023/09/14 05:24:44;;;;;;;6.73;2.73;;;17.40;99.90;;;;;;5033517;28;20446;-80
2023/09/14 05:27:11;;;;;;;4.60;3.03;;;17.30;99.90;;;;;;5032285;28;20491;-80
2023/09/14 05:29:38;;;;;;;5.20;3.43;;;17.30;99.90;;;;;;5032762;28;20446;-81
2023/09/14 05:32:05;;;;;;;6.00;3.00;;;17.40;99.90;;;;;;5032713;28;20454;-80
2023/09/14 05:34:32;;;;;;;8.40;2.93;;;17.30;99.90;;;;;;5032645;28;20458;-80
2023/09/14 05:36:59;;;;;;;4.73;2.77;;;17.30;99.90;;;;;;5032666;28;20517;-81
2023/09/14 05:39:25;;;;;;;7.83;3.57;;;17.30;99.90;;;;;;5034111;28;20446;-80
2023/09/14 05:41:53;;;;;;;5.43;3.67;;;17.30;99.90;;;;;;5036238;28;20496;-81
2023/09/14 05:44:20;;;;;;;9.20;4.63;;;17.40;99.90;;;;;;5036141;28;20458;-80
2023/09/14 05:46:47;;;;;;;5.93;3.33;;;17.30;99.90;;;;;;5035714;28;20489;-80
2023/09/14 05:49:14;;;;;;;7.10;3.87;;;17.30;99.90;;;;;;5035762;28;20451;-80
2023/09/14 05:51:40;;;;;;;6.50;4.30;;;17.30;99.90;;;;;;5036073;28;20433;-80
2023/09/14 05:54:08;;;;;;;4.20;2.63;;;17.30;99.90;;;;;;5035979;28;20457;-80
2023/09/14 05:56:34;;;;;;;7.47;2.63;;;17.30;99.90;;;;;;5035903;28;20971;-81
2023/09/14 05:59:02;;;;;;;5.90;2.50;;;17.40;99.90;;;;;;5035649;28;20434;-80
2023/09/14 06:01:29;;;;;;;8.53;3.90;;;17.40;99.90;;;;;;5035557;28;20449;-80
2023/09/14 06:03:56;;;;;;;7.97;3.97;;;17.40;99.90;;;;;;5035820;28;20447;-81
2023/09/14 06:06:23;;;;;;;7.70;3.13;;;17.30;99.90;;;;;;5035327;28;20490;-80
2023/09/14 06:08:49;;;;;;;3.97;3.10;;;17.20;99.90;;;;;;5035299;28;20805;-80
2023/09/14 06:11:16;;;;;;;8.40;4.10;;;17.30;99.90;;;;;;5035350;28;20453;-81
2023/09/14 06:13:43;;;;;;;3.80;2.47;;;17.40;99.90;;;;;;5035603;28;20447;-81
2023/09/14 06:16:12;;;;;;;5.07;3.07;;;17.30;99.90;;;;;;5035209;28;20471;-81
2023/09/14 06:18:38;;;;;;;6.70;3.23;;;17.40;99.90;;;;;;5035301;28;20905;-80
2023/09/14 06:21:05;;;;;;;4.70;2.63;;;17.40;99.90;;;;;;5035485;28;20447;-81
2023/09/14 06:23:32;;;;;;;6.63;2.70;;;17.40;99.90;;;;;;5035594;28;20823;-80
2023/09/14 06:25:58;;;;;;;7.20;3.63;;;17.50;99.90;;;;;;5035032;28;21010;-80
2023/09/14 06:28:26;;;;;;;5.13;2.70;;;17.50;99.90;;;;;;5035274;28;20845;-80
2023/09/14 06:30:55;;;;;;;4.43;2.47;;;17.60;99.90;;;;;;5035279;28;20460;-80
2023/09/14 06:33:23;;;;;;;4.83;2.90;;;17.50;99.90;;;;;;5035121;28;20459;-80
2023/09/14 06:35:50;;;;;;;5.67;3.07;;;17.50;99.90;;;;;;5034834;28;20470;-80
2023/09/14 06:38:17;;;;;;;5.40;2.70;;;17.60;99.90;;;;;;5035081;28;20457;-80
2023/09/14 06:40:44;;;;;;;5.30;2.80;;;17.60;99.90;;;;;;5035129;28;20438;-80
2023/09/14 06:43:11;;;;;;;5.43;2.30;;;17.50;99.90;;;;;;5035311;28;20439;-80
2023/09/14 06:45:38;;;;;;;6.73;2.97;;;17.60;99.90;;;;;;5034905;28;20466;-80
2023/09/14 06:48:05;;;;;;;5.70;2.73;;;17.60;99.90;;;;;;5034724;28;20441;-80
2023/09/14 06:50:33;;;;;;;4.23;2.70;;;17.60;99.90;;;;;;5034866;28;20466;-80
2023/09/14 06:53:00;;;;;;;6.90;2.60;;;17.60;99.90;;;;;;5034862;28;20465;-80
2023/09/14 06:55:26;;;;;;;5.80;2.80;;;17.60;99.90;;;;;;5034810;28;20463;-80
2023/09/14 06:57:54;;;;;;;4.83;2.50;;;17.60;99.90;;;;;;5034781;28;20434;-80
2023/09/14 07:00:21;;;;;;;5.23;2.83;;;17.50;99.90;;;;;;5034789;28;20423;-80
2023/09/14 07:02:48;;;;;;;3.73;3.33;;;17.50;99.90;;;;;;5035225;28;20442;-80
2023/09/14 07:05:15;;;;;;;8.20;3.30;;;17.50;99.90;;;;;;5034348;28;20454;-80
2023/09/14 07:07:43;;;;;;;4.37;2.90;;;17.60;99.90;;;;;;5034490;28;20493;-81
2023/09/14 07:10:11;;;;;;;5.47;2.67;;;17.70;99.90;;;;;;5034585;28;20449;-80
2023/09/14 07:12:38;;;;;;;4.67;3.03;;;17.70;99.90;;;;;;5034523;28;20450;-80
2023/09/14 07:15:06;;;;;;;3.57;2.37;;;17.70;99.90;;;;;;5034428;28;20471;-80
2023/09/14 07:17:32;;;;;;;5.37;2.73;;;17.70;99.90;;;;;;5034415;28;20438;-80
2023/09/14 07:19:59;;;;;;;5.50;2.20;;;17.70;99.90;;;;;;5034076;28;20825;-80
2023/09/14 07:22:26;;;;;;;2.50;1.57;;;17.70;99.90;;;;;;5034320;28;20818;-80
2023/09/14 07:24:54;;;;;;;3.30;2.20;;;17.70;99.90;;;;;;5034197;28;20452;-80
2023/09/14 07:27:22;;;;;;;3.77;2.30;;;17.70;99.90;;;;;;5033753;28;20499;-80
2023/09/14 07:29:49;;;;;;;7.03;3.00;;;17.80;99.90;;;;;;5034166;28;20496;-80
2023/09/14 07:32:16;;;;;;;5.23;2.57;;;17.80;99.90;;;;;;5034340;28;20434;-80
2023/09/14 07:34:43;;;;;;;6.23;3.40;;;17.70;99.90;;;;;;5034008;28;20453;-80
2023/09/14 07:37:09;;;;;;;7.80;3.40;;;17.70;99.90;;;;;;5033751;28;20936;-80
2023/09/14 07:39:36;;;;;;;4.97;2.50;;;17.80;99.90;;;;;;5033986;28;20446;-80
2023/09/14 07:42:05;;;;;;;5.43;3.30;;;17.80;99.90;;;;;;5033947;28;20446;-80
2023/09/14 07:44:31;;;;;;;7.63;3.00;;;17.70;99.90;;;;;;5033902;28;20465;-80
2023/09/14 07:46:58;;;;;;;9.40;3.23;;;17.80;99.90;;;;;;5033428;28;21018;-80
2023/09/14 07:49:25;;;;;;;7.20;3.30;;;17.90;99.90;;;;;;5033812;28;20461;-80
2023/09/14 07:51:52;;;;;;;5.00;2.30;;;17.90;99.90;;;;;;5033517;28;20435;-80
2023/09/14 07:54:18;;;;;;;3.80;3.10;;;18.00;99.90;;;;;;5033702;28;20450;-80
2023/09/14 07:56:47;;;;;;;6.77;3.10;;;18.70;99.90;;;;;;5033620;28;20465;-80
2023/09/14 07:59:15;;;;;;;6.87;2.77;;;17.90;99.90;;;;;;5033605;28;20443;-80
2023/09/14 08:01:41;;;;;;;4.53;2.93;;;17.90;99.90;;;;;;5032871;28;20936;-80
2023/09/14 08:04:08;;;;;;;6.23;2.67;;;17.80;99.90;;;;;;5033603;28;20447;-80
2023/09/14 08:06:35;;;;;;;3.50;2.23;;;17.80;99.90;;;;;;5033405;28;20497;-80
2023/09/14 08:09:02;;;;;;;5.60;2.87;;;17.90;99.90;;;;;;5033564;28;20446;-80
2023/09/14 08:11:29;;;;;;;3.83;2.27;;;17.90;99.90;;;;;;5033208;28;20447;-80
2023/09/14 08:13:56;;;;;;;4.70;2.50;;;18.00;99.90;;;;;;5033478;28;20438;-80
2023/09/14 08:16:25;;;;;;;7.60;2.80;;;18.10;99.90;;;;;;5033357;28;20474;-81
2023/09/14 08:18:52;;;;;;;5.57;2.87;;;18.10;99.90;;;;;;5033343;28;20439;-80
2023/09/14 08:21:19;;;;;;;3.20;2.30;;;18.10;99.90;;;;;;5033083;28;20963;-80
2023/09/14 08:23:45;;;;;;;5.30;2.80;;;18.20;99.90;;;;;;5033369;28;20458;-81
2023/09/14 08:26:12;;;;;;;7.47;2.90;;;18.30;99.90;;;;;;5032659;28;21007;-80
2023/09/14 08:28:39;;;;;;;5.33;2.37;;;18.20;99.90;;;;;;5033323;28;20450;-80
2023/09/14 08:31:06;;;;;;;5.13;2.80;;;18.10;99.90;;;;;;5033260;28;20447;-80
2023/09/14 08:33:34;;;;;;;5.00;3.17;;;18.20;99.90;;;;;;5033194;28;20443;-80
2023/09/14 08:36:00;;;;;;;4.07;2.30;;;18.20;99.90;;;;;;5032876;28;20470;-80
2023/09/14 08:38:28;;;;;;;6.23;2.90;;;18.20;99.90;;;;;;5033206;28;20446;-80
2023/09/14 08:40:56;;;;;;;5.20;2.63;;;18.30;99.90;;;;;;5033225;28;20427;-80
2023/09/14 08:43:24;;;;;;;5.10;2.50;;;18.40;99.90;;;;;;5033187;28;20451;-81
2023/09/14 08:45:51;;;;;;;6.00;2.83;;;18.40;99.90;;;;;;5033075;28;20462;-80
2023/09/14 08:48:20;;;;;;;3.47;2.50;;;18.50;99.90;;;;;;5033038;28;20540;-80
2023/09/14 08:50:49;;;;;;;4.00;2.30;;;18.60;99.90;;;;;;5033087;28;20816;-81
2023/09/14 08:53:17;;;;;;;5.77;2.03;;;18.60;99.90;;;;;;5033107;28;20439;-80
2023/09/14 08:55:44;;;;;;;6.40;3.23;;;18.60;99.90;;;;;;5033666;28;20475;-80
2023/09/14 08:58:12;;;;;;;3.13;2.00;;;18.70;99.90;;;;;;5032796;28;20446;-80
2023/09/14 09:00:41;;;;;;;4.50;2.90;;;18.70;99.90;;;;;;5032679;28;20939;-80
2023/09/14 09:03:08;;;;;;;3.30;2.93;;;18.80;99.90;;;;;;5032638;28;20945;-81
2023/09/14 09:05:35;;;;;;;2.20;1.63;;;18.80;99.90;;;;;;5032655;28;20974;-80
2023/09/14 09:08:04;;;;;;;4.57;2.50;;;18.80;99.90;;;;;;5032385;28;20482;-80
2023/09/14 09:10:32;;;;;;;2.60;2.00;;;18.70;99.90;;;;;;5032842;28;20451;-82
2023/09/14 09:13:00;;;;;;;2.43;2.23;;;18.70;99.90;;;;;;5031639;28;20450;-81
2023/09/14 09:15:27;;;;;;;3.80;2.10;;;18.80;99.90;;;;;;5035667;28;20843;-81
2023/09/14 09:17:55;;;;;;;3.97;2.57;;;18.90;99.90;;;;;;5036562;28;20879;-80
2023/09/14 09:20:23;;;;;;;3.00;2.47;;;18.80;99.90;;;;;;5036633;28;20453;-80
2023/09/14 09:22:51;;;;;;;4.37;2.23;;;18.90;99.90;;;;;;5036276;28;20939;-80
2023/09/14 09:25:21;;;;;;;3.10;2.17;;;19.00;99.90;;;;;;5036104;28;20462;-80
2023/09/14 09:27:48;;;;;;;4.00;2.50;;;18.90;99.90;;;;;;5036479;28;20471;-80
2023/09/14 09:30:16;;;;;;;4.63;3.20;;;19.00;99.90;;;;;;5036456;28;20446;-80
2023/09/14 09:32:43;;;;;;;4.17;2.33;;;19.00;99.90;;;;;;5036575;28;20974;-80
2023/09/14 09:35:18;;;;;;;4.70;2.57;;;18.90;99.90;;;;;;5036247;28;20546;-80
2023/09/14 09:37:44;;;;;;;3.87;1.97;;;18.80;99.90;;;;;;5036300;28;20457;-80
2023/09/14 09:40:13;;;;;;;2.90;1.93;;;18.90;99.90;;;;;;5036275;28;20447;-80
2023/09/14 09:42:42;;;;;;;3.73;2.50;;;19.10;99.90;;;;;;5036260;28;20262;-80
2023/09/14 09:45:10;;;;;;;2.30;1.50;;;19.30;99.90;;;;;;5036139;28;20458;-80
2023/09/14 09:47:37;;;;;;;4.20;2.40;;;19.60;99.90;;;;;;5035722;28;20861;-80
2023/09/14 09:50:07;;;;;;;2.57;2.17;;;20.10;99.90;;;;;;5035816;28;20526;-81
2023/09/14 09:52:35;;;;;;;2.83;2.53;;;20.70;99.90;;;;;;5036087;28;20481;-80
2023/09/14 09:55:04;;;;;;;4.67;2.70;;;21.00;99.90;;;;;;5035642;28;21009;-81
2023/09/14 09:57:34;;;;;;;3.03;1.70;;;21.20;99.90;;;;;;5036004;28;20485;-81
2023/09/14 10:00:12;;;;;;;2.37;2.17;;;21.20;99.90;;;;;;5036020;28;20514;-81
2023/09/14 10:02:39;;;;;;;2.43;2.00;;;21.20;99.90;;;;;;5035914;28;20837;-81
2023/09/14 10:05:07;;;;;;;2.47;2.27;;;21.00;99.90;;;;;;5035764;28;20472;-80
2023/09/14 10:07:37;;;;;;;4.33;1.93;;;20.90;99.90;;;;;;5035394;28;20585;-81
2023/09/14 10:10:05;;;;;;;2.17;1.90;;;20.70;99.90;;;;;;5036009;28;20435;-80
2023/09/14 10:12:33;;;;;;;2.60;1.77;;;20.40;99.90;;;;;;5035629;28;20449;-80
2023/09/14 10:15:00;;;;;;;2.43;2.20;;;20.30;99.90;;;;;;5035604;28;20470;-80
2023/09/14 10:17:30;;;;;;;2.17;2.00;;;20.20;99.90;;;;;;5035229;28;20442;-81
2023/09/14 10:19:58;;;;;;;2.73;2.07;;;20.30;99.90;;;;;;5035293;28;20478;-80
2023/09/14 10:22:27;;;;;;;3.77;2.30;;;20.50;99.90;;;;;;5035164;28;20452;-81
2023/09/14 10:24:55;;;;;;;7.20;1.90;;;20.80;99.90;;;;;;5035591;28;20545;-81
2023/09/14 10:27:23;;;;;;;2.07;1.87;;;21.00;99.90;;;;;;5035171;28;20486;-81
2023/09/14 10:29:52;;;;;;;3.33;2.23;;;21.30;99.90;;;;;;5035391;28;20457;-80
2023/09/14 10:32:20;;;;;;;2.57;1.63;;;21.40;99.90;;;;;;5036047;28;20438;-81
2023/09/14 10:34:50;;;;;;;5.07;2.50;;;21.70;99.90;;;;;;5034987;28;20438;-80
2023/09/14 10:37:19;;;;;;;3.40;2.30;;;22.00;99.90;;;;;;5035281;28;20419;-81
2023/09/14 10:39:46;;;;;;;3.33;2.17;;;22.20;99.90;;;;;;5035201;28;20442;-81
2023/09/14 10:42:13;;;;;;;2.90;2.57;;;22.40;99.90;;;;;;5034849;28;20978;-81
2023/09/14 10:44:41;;;;;;;3.37;2.87;;;22.50;99.90;;;;;;5034775;28;20430;-81
2023/09/14 10:47:10;;;;;;;2.90;1.50;;;22.50;99.90;;;;;;5034680;28;20453;-81
2023/09/14 10:49:38;;;;;;;3.53;1.97;;;22.50;99.90;;;;;;5034656;28;20818;-81
2023/09/14 10:52:07;;;;;;;2.90;2.00;;;22.50;99.90;;;;;;5034987;28;20938;-81
2023/09/14 10:54:36;;;;;;;2.87;2.30;;;22.40;99.90;;;;;;5034932;28;20447;-80
2023/09/14 10:57:13;;;;;;;2.80;2.00;;;22.30;99.90;;;;;;5034869;28;20446;-80
2023/09/14 10:59:50;;;;;;;4.00;1.73;;;22.10;99.90;;;;;;5035150;28;20418;-81
2023/09/14 11:02:54;;;;;;;4.47;2.00;;;21.80;99.90;;;;;;5034801;28;20449;-81
2023/09/14 11:05:23;;;;;;;2.10;1.77;;;21.40;99.90;;;;;;5034610;28;20465;-81
2023/09/14 11:07:58;;;;;;;2.77;2.47;;;21.20;99.90;;;;;;5034293;28;20565;-80
2023/09/14 11:10:25;;;;;;;1.87;1.60;;;21.20;99.90;;;;;;5034664;28;20425;-81
2023/09/14 11:12:52;;;;;;;2.10;1.73;;;21.30;99.90;;;;;;5034523;28;20450;-81
2023/09/14 11:15:21;;;;;;;2.30;1.60;;;21.70;99.90;;;;;;5036537;28;20533;-81
2023/09/14 11:17:49;;;;;;;4.67;1.80;;;21.90;99.90;;;;;;5034458;28;20434;-81
2023/09/14 11:20:38;;;;;;;2.80;2.37;;;22.30;99.90;;;;;;5034393;28;20468;-81
2023/09/14 11:23:08;;;;;;;2.20;2.00;;;22.30;99.90;;;;;;5034335;28;20454;-81
2023/09/14 11:25:36;;;;;;;3.17;1.70;;;22.50;99.90;;;;;;5033776;28;20457;-81
2023/09/14 11:28:04;;;;;;;1.93;1.40;;;22.60;99.90;;;;;;5033935;28;20466;-81
2023/09/14 11:30:32;;;;;;;1.60;1.30;;;22.80;99.90;;;;;;5034159;28;20446;-81
2023/09/14 11:33:01;;;;;;;1.63;1.50;;;22.90;99.90;;;;;;5033937;28;20457;-81
2023/09/14 11:35:34;;;;;;;1.50;1.40;;;22.70;99.90;;;;;;5034143;28;20454;-81
2023/09/14 11:38:02;;;;;;;2.57;1.53;;;22.50;99.90;;;;;;5033382;28;20439;-81
2023/09/14 11:40:34;;;;;;;1.90;1.30;;;22.30;99.90;;;;;;5034038;28;20447;-81
2023/09/14 11:43:28;;;;;;;1.80;1.67;;;22.10;99.90;;;;;;5034076;28;20484;-81
2023/09/14 11:45:58;;;;;;;1.10;1.00;;;22.00;99.90;;;;;;5033556;28;20466;-81
2023/09/14 11:48:27;;;;;;;2.37;1.87;;;22.00;99.90;;;;;;5034095;28;20485;-81
2023/09/14 11:50:55;;;;;;;1.37;1.23;;;21.90;99.90;;;;;;5033811;28;20446;-81
2023/09/14 11:53:24;;;;;;;1.77;1.47;;;21.90;99.90;;;;;;5033822;28;20469;-81
2023/09/14 11:55:53;;;;;;;1.70;1.60;;;21.80;99.90;;;;;;5033755;28;20458;-81
2023/09/14 11:58:23;;;;;;;1.63;1.30;;;21.90;99.90;;;;;;5033699;28;20443;-81
2023/09/14 12:00:52;;;;;;;1.60;1.50;;;21.70;99.90;;;;;;5033740;28;20427;-82
2023/09/14 12:03:19;;;;;;;3.43;1.40;;;21.70;99.90;;;;;;5033544;28;20456;-81
2023/09/14 12:05:47;;;;;;;2.30;1.40;;;21.70;99.90;;;;;;5033560;28;20477;-81
2023/09/14 12:08:15;;;;;;;1.53;1.37;;;21.70;99.90;;;;;;5033525;28;20481;-81
2023/09/14 12:10:43;;;;;;;2.43;1.23;;;21.80;99.90;;;;;;5033543;28;20446;-81
2023/09/14 12:13:15;;;;;;;1.50;1.00;;;21.80;99.90;;;;;;5033491;28;20450;-81
2023/09/14 12:15:43;;;;;;;1.43;1.33;;;21.90;99.90;;;;;;5033057;28;20805;-81
2023/09/14 12:18:11;;;;;;;0.80;0.73;;;21.90;99.90;;;;;;5033173;28;20442;-81
2023/09/14 12:20:39;;;;;;;1.77;1.20;;;21.80;99.90;;;;;;5033429;28;20442;-81
2023/09/14 12:23:08;;;;;;;3.10;1.03;;;21.80;99.90;;;;;;5033033;28;20935;-81
2023/09/14 12:25:35;;;;;;;1.20;1.10;;;21.80;99.90;;;;;;5032946;28;20819;-81
2023/09/14 12:28:05;;;;;;;2.70;1.10;;;21.70;99.90;;;;;;5033286;28;20474;-81
2023/09/14 12:30:34;;;;;;;0.93;0.87;;;21.70;99.90;;;;;;5032932;28;20940;-81
2023/09/14 12:33:02;;;;;;;0.70;0.70;;;21.70;99.90;;;;;;5033212;28;20445;-83
2023/09/14 12:35:30;;;;;;;1.30;1.00;;;21.60;99.90;;;;;;5033147;28;20516;-82
2023/09/14 12:38:01;;;;;;;1.10;1.00;;;21.70;99.90;;;;;;5033194;28;20465;-83
2023/09/14 12:40:28;;;;;;;1.83;0.90;;;21.70;99.90;;;;;;5032898;28;20431;-82
2023/09/14 12:42:55;;;;;;;0.93;0.93;;;21.70;99.90;;;;;;5033153;28;20434;-81
2023/09/14 12:45:22;;;;;;;0.93;0.90;;;21.80;99.90;;;;;;5032791;28;20992;-81
2023/09/14 12:47:50;;;;;;;1.40;0.90;;;21.70;99.90;;;;;;5033760;28;20477;-81
2023/09/14 12:50:17;;;;;;;0.93;0.93;;;21.60;99.90;;;;;;5036938;28;20430;-82
2023/09/14 12:52:45;;;;;;;1.07;0.97;;;21.60;99.90;;;;;;5036879;28;21037;-81